createdAt,value
2023-02-14T00:01:12.178Z,17.33
2023-02-14T00:03:40.352Z,20.55
2023-02-14T00:06:15.431Z,20.50
2023-02-14T00:08:45.132Z,18.40
2023-02-14T00:11:13.665Z,17.13
2023-02-14T00:14:00.739Z,14.88
2023-02-14T00:19:03.745Z,21.85
2023-02-14T00:21:38.913Z,19.88
2023-02-14T00:24:17.596Z,20.27
2023-02-14T00:26:44.647Z,21.25
2023-02-14T00:29:17.751Z,13.40
2023-02-14T00:31:45.350Z,17.92
2023-02-14T00:34:14.179Z,19.73
2023-02-14T00:36:41.135Z,21.67
2023-02-14T00:39:10.689Z,18.67
2023-02-14T00:41:38.968Z,20.00
2023-02-14T00:44:06.322Z,13.85
2023-02-14T00:46:33.961Z,15.32
2023-02-14T00:49:01.601Z,17.25
2023-02-14T00:51:29.021Z,17.15
2023-02-14T00:53:56.347Z,20.00
2023-02-14T00:56:23.347Z,18.88
2023-02-14T00:58:50.378Z,17.63
2023-02-14T01:01:19.442Z,15.52
2023-02-14T01:03:47.010Z,14.10
2023-02-14T01:06:14.026Z,17.38
2023-02-14T01:08:41.044Z,15.00
2023-02-14T01:11:16.526Z,17.85
2023-02-14T01:13:44.709Z,14.48
2023-02-14T01:16:14.436Z,13.98
2023-02-14T01:18:42.488Z,15.27
2023-02-14T01:21:19.226Z,14.73
2023-02-14T01:23:48.522Z,19.52
2023-02-14T01:26:15.940Z,17.10
2023-02-14T01:28:44.110Z,17.55
2023-02-14T01:31:22.643Z,17.05
2023-02-14T01:33:50.550Z,15.57
2023-02-14T01:36:26.304Z,16.95
2023-02-14T01:38:55.400Z,19.57
2023-02-14T01:41:24.498Z,18.75
2023-02-14T01:43:55.294Z,22.95
2023-02-14T01:46:26.229Z,15.15
2023-02-14T01:48:58.815Z,15.52
2023-02-14T01:51:26.150Z,14.63
2023-02-14T01:53:54.615Z,19.63
2023-02-14T01:56:28.967Z,17.77
2023-02-14T01:59:00.502Z,17.20
2023-02-14T02:01:28.316Z,15.98
2023-02-14T02:03:58.258Z,16.42
2023-02-14T02:06:36.178Z,15.20
2023-02-14T02:09:16.610Z,19.45
2023-02-14T02:11:44.103Z,15.23
2023-02-14T02:14:16.923Z,15.55
2023-02-14T02:17:20.788Z,14.38
2023-02-14T02:19:54.738Z,13.65
2023-02-14T02:23:10.490Z,10.75
2023-02-14T02:25:49.293Z,14.68
2023-02-14T02:28:45.279Z,15.57
2023-02-14T02:31:30.701Z,13.38
2023-02-14T02:34:29.188Z,11.88
2023-02-14T02:37:16.650Z,12.85
2023-02-14T02:39:58.327Z,14.40
2023-02-14T02:42:46.297Z,17.38
2023-02-14T02:45:26.350Z,17.83
2023-02-14T02:47:53.197Z,12.25
2023-02-14T02:50:51.324Z,12.85
2023-02-14T02:53:27.728Z,14.68
2023-02-14T02:56:15.830Z,11.60
2023-02-14T02:59:00.226Z,14.00
2023-02-14T03:01:33.993Z,11.73
2023-02-14T03:04:24.171Z,10.50
2023-02-14T03:06:52.087Z,9.00
2023-02-14T03:09:24.365Z,13.63
2023-02-14T03:11:58.725Z,11.15
2023-02-14T03:15:22.696Z,13.30
2023-02-14T03:18:30.700Z,11.55
2023-02-14T03:23:36.702Z,10.18
2023-02-14T03:26:35.009Z,10.02
2023-02-14T03:31:38.202Z,11.75
2023-02-14T03:34:22.674Z,12.73
2023-02-14T03:37:25.929Z,11.32
2023-02-14T03:40:04.968Z,11.50
2023-02-14T03:42:40.459Z,13.43
2023-02-14T03:45:11.056Z,14.30
2023-02-14T03:47:42.465Z,13.00
2023-02-14T03:50:18.686Z,15.02
2023-02-14T03:52:49.452Z,10.93
2023-02-14T03:55:24.214Z,11.15
2023-02-14T03:58:10.864Z,16.77
2023-02-14T04:00:42.001Z,15.80
2023-02-14T04:03:15.322Z,17.17
2023-02-14T04:05:46.838Z,15.65
2023-02-14T04:08:25.265Z,16.80
2023-02-14T04:10:53.208Z,15.10
2023-02-14T04:13:20.807Z,14.73
2023-02-14T04:15:47.813Z,14.75
2023-02-14T04:18:33.404Z,15.43
2023-02-14T04:21:00.577Z,15.82
2023-02-14T04:23:27.805Z,13.63
2023-02-14T04:25:54.688Z,13.13
2023-02-14T04:28:21.702Z,13.63
2023-02-14T04:30:48.606Z,14.25
2023-02-14T04:33:15.673Z,14.95
2023-02-14T04:35:42.914Z,17.15
2023-02-14T04:38:09.965Z,13.45
2023-02-14T04:40:37.013Z,12.80
2023-02-14T04:43:04.765Z,13.82
2023-02-14T04:45:31.660Z,17.38
2023-02-14T04:47:58.662Z,15.50
2023-02-14T04:50:26.063Z,15.60
2023-02-14T04:52:53.650Z,13.77
2023-02-14T04:55:20.627Z,13.65
2023-02-14T04:57:47.449Z,11.30
2023-02-14T05:00:15.067Z,14.15
2023-02-14T05:02:41.931Z,15.85
2023-02-14T05:05:09.014Z,16.88
2023-02-14T05:07:36.156Z,15.45
2023-02-14T05:10:04.741Z,15.23
2023-02-14T05:12:31.592Z,15.18
2023-02-14T05:14:58.500Z,15.25
2023-02-14T05:17:25.485Z,15.40
2023-02-14T05:19:52.530Z,16.73
2023-02-14T05:22:19.408Z,17.13
2023-02-14T05:24:46.319Z,16.60
2023-02-14T05:27:13.226Z,14.32
2023-02-14T05:29:40.090Z,12.48
2023-02-14T05:32:07.079Z,12.30
2023-02-14T05:34:34.248Z,13.07
2023-02-14T05:37:03.163Z,13.95
2023-02-14T05:39:30.117Z,14.73
2023-02-14T05:41:59.221Z,12.90
2023-02-14T05:44:26.276Z,10.18
2023-02-14T05:46:54.959Z,13.32
2023-02-14T05:49:21.908Z,16.05
2023-02-14T05:51:48.834Z,14.90
2023-02-14T05:54:15.841Z,14.35
2023-02-14T05:56:42.721Z,12.95
2023-02-14T05:59:09.614Z,10.57
2023-02-14T06:01:36.544Z,9.38
2023-02-14T06:04:03.680Z,9.05
2023-02-14T06:06:30.588Z,13.30
2023-02-14T06:08:57.538Z,12.50
2023-02-14T06:11:24.494Z,13.85
2023-02-14T06:13:51.464Z,9.88
2023-02-14T06:16:18.360Z,8.93
2023-02-14T06:18:45.381Z,11.15
2023-02-14T06:21:12.293Z,14.75
2023-02-14T06:23:39.230Z,14.60
2023-02-14T06:26:06.166Z,14.18
2023-02-14T06:28:33.024Z,10.95
2023-02-14T06:31:00.222Z,11.20
2023-02-14T06:33:27.425Z,12.20
2023-02-14T06:35:54.765Z,12.75
2023-02-14T06:38:21.778Z,12.50
2023-02-14T06:40:48.726Z,13.18
2023-02-14T06:43:15.726Z,12.60
2023-02-14T06:45:43.897Z,12.88
2023-02-14T06:48:11.011Z,12.88
2023-02-14T06:50:38.110Z,13.75
2023-02-14T06:53:06.336Z,13.23
2023-02-14T06:55:33.357Z,13.43
2023-02-14T06:58:00.234Z,10.85
2023-02-14T07:00:27.295Z,9.80
2023-02-14T07:02:54.308Z,9.93
2023-02-14T07:05:22.011Z,13.95
2023-02-14T07:07:49.220Z,11.88
2023-02-14T07:10:16.330Z,10.77
2023-02-14T07:12:43.271Z,10.13
2023-02-14T07:15:12.472Z,8.30
2023-02-14T07:17:40.364Z,9.55
2023-02-14T07:20:09.465Z,13.10
2023-02-14T07:22:37.166Z,14.63
2023-02-14T07:25:05.665Z,12.32
2023-02-14T07:27:33.158Z,9.05
2023-02-14T07:30:00.037Z,11.73
2023-02-14T07:32:27.072Z,12.07
2023-02-14T07:34:54.143Z,11.60
2023-02-14T07:37:21.379Z,12.13
2023-02-14T07:39:48.272Z,12.77
2023-02-14T07:42:15.325Z,10.60
2023-02-14T07:44:42.422Z,10.32
2023-02-14T07:47:10.088Z,10.07
2023-02-14T07:49:37.434Z,13.25
2023-02-14T07:52:04.895Z,12.48
2023-02-14T07:54:31.846Z,13.35
2023-02-14T07:56:58.790Z,11.60
2023-02-14T07:59:26.153Z,10.50
2023-02-14T08:01:53.608Z,12.45
2023-02-14T08:04:21.452Z,13.20
2023-02-14T08:06:48.299Z,12.18
2023-02-14T08:09:24.801Z,15.50
2023-02-14T08:14:41.330Z,13.02
2023-02-14T08:17:10.182Z,9.55
2023-02-14T08:19:37.593Z,13.80
2023-02-14T08:22:05.030Z,10.88
2023-02-14T08:24:32.734Z,10.65
2023-02-14T08:26:59.883Z,8.70
2023-02-14T08:29:26.868Z,11.80
2023-02-14T08:31:53.944Z,10.52
2023-02-14T08:34:20.953Z,12.65
2023-02-14T08:36:47.914Z,13.55
2023-02-14T08:39:14.791Z,10.65
2023-02-14T08:41:41.680Z,11.38
2023-02-14T08:44:08.640Z,11.63
2023-02-14T08:46:36.237Z,13.00
2023-02-14T08:49:03.239Z,12.38
2023-02-14T08:51:30.223Z,15.15
2023-02-14T08:53:57.130Z,12.73
2023-02-14T08:56:24.953Z,12.98
2023-02-14T08:58:53.378Z,11.02
2023-02-14T09:01:20.749Z,15.70
2023-02-14T09:03:47.937Z,13.52
2023-02-14T09:06:17.692Z,14.05
2023-02-14T09:08:45.656Z,11.10
2023-02-14T09:11:15.873Z,13.13
2023-02-14T09:13:43.498Z,12.50
2023-02-14T09:16:12.491Z,13.57
2023-02-14T09:18:40.275Z,13.93
2023-02-14T09:21:10.036Z,12.55
2023-02-14T09:23:37.807Z,13.48
2023-02-14T09:26:07.992Z,11.27
2023-02-14T09:28:36.009Z,14.63
2023-02-14T09:31:15.301Z,14.48
2023-02-14T09:33:42.945Z,15.60
2023-02-14T09:36:16.007Z,12.13
2023-02-14T09:38:42.955Z,10.50
2023-02-14T09:41:17.307Z,12.00
2023-02-14T09:44:10.118Z,10.18
2023-02-14T10:18:13.796Z,11.13
2023-02-14T10:20:48.821Z,12.10
2023-02-14T10:23:27.127Z,10.48
2023-02-14T10:26:22.062Z,8.25
2023-02-14T10:28:50.304Z,8.82
2023-02-14T10:31:44.208Z,10.52
2023-02-14T10:34:22.941Z,8.07
2023-02-14T10:37:02.072Z,9.27
2023-02-14T10:39:50.108Z,7.53
2023-02-14T10:42:43.637Z,9.40
2023-02-14T10:45:33.673Z,7.97
2023-02-14T10:48:16.777Z,6.20
2023-02-14T10:50:49.409Z,5.80
2023-02-14T10:53:44.489Z,7.70
2023-02-14T10:56:22.612Z,6.03
2023-02-14T10:58:52.482Z,6.32
2023-02-14T11:01:20.185Z,5.32
2023-02-14T11:03:55.029Z,6.10
2023-02-14T11:06:22.456Z,6.28
2023-02-14T11:08:49.468Z,6.63
2023-02-14T11:11:35.309Z,6.70
2023-02-14T11:14:26.822Z,6.28
2023-02-14T11:16:55.177Z,6.10
2023-02-14T11:19:23.893Z,7.47
2023-02-14T11:21:52.030Z,7.10
2023-02-14T11:24:20.350Z,8.43
2023-02-14T11:26:50.016Z,6.43
2023-02-14T11:29:25.481Z,6.63
2023-02-14T11:31:52.896Z,5.70
2023-02-14T11:34:36.869Z,7.80
2023-02-14T11:37:16.049Z,8.10
2023-02-14T11:39:43.179Z,6.32
2023-02-14T11:42:13.005Z,6.32
2023-02-14T11:44:56.025Z,6.03
2023-02-14T11:47:32.481Z,5.32
2023-02-14T11:50:23.560Z,6.32
2023-02-14T11:52:56.461Z,6.00
2023-02-14T11:55:28.154Z,6.57
2023-02-14T11:57:56.605Z,4.65
2023-02-14T12:00:26.885Z,4.97
2023-02-14T12:02:55.331Z,5.45
2023-02-14T12:05:33.889Z,6.90
2023-02-14T12:08:04.503Z,7.43
2023-02-14T12:10:36.706Z,6.18
2023-02-14T12:13:25.537Z,5.18
2023-02-14T12:15:54.910Z,6.32
2023-02-14T12:18:42.658Z,6.65
2023-02-14T12:21:16.196Z,5.40
2023-02-14T12:23:49.136Z,6.05
2023-02-14T12:26:28.356Z,5.13
2023-02-14T12:29:02.008Z,5.10
2023-02-14T12:31:30.119Z,5.60
2023-02-14T12:33:57.317Z,6.93
2023-02-14T12:36:42.487Z,5.68
2023-02-14T12:39:18.341Z,5.28
2023-02-14T12:41:45.245Z,4.85
2023-02-14T12:44:35.364Z,5.25
2023-02-14T12:47:24.335Z,5.18
2023-02-14T12:50:10.684Z,5.95
2023-02-14T12:53:12.570Z,4.90
2023-02-14T12:55:39.559Z,3.28
2023-02-14T12:58:19.181Z,5.38
2023-02-14T13:00:54.663Z,4.78
2023-02-14T13:03:36.437Z,4.70
2023-02-14T13:06:29.411Z,4.10
2023-02-14T13:09:08.350Z,4.63
2023-02-14T13:11:53.707Z,4.30
2023-02-14T13:14:41.612Z,4.45
2023-02-14T13:17:23.501Z,3.92
2023-02-14T13:20:08.449Z,5.22
2023-02-14T13:22:36.761Z,4.65
2023-02-14T13:25:13.674Z,4.72
2023-02-14T13:27:41.633Z,4.45
2023-02-14T13:30:43.204Z,4.70
2023-02-14T13:33:35.161Z,4.70
2023-02-14T13:36:07.889Z,3.70
2023-02-14T13:38:43.539Z,4.78
2023-02-14T13:41:11.568Z,6.05
2023-02-14T13:44:01.924Z,3.72
2023-02-14T13:46:35.351Z,4.38
2023-02-14T13:49:20.472Z,5.03
2023-02-14T13:51:53.612Z,4.43
2023-02-14T13:54:34.497Z,5.32
2023-02-14T13:57:22.927Z,4.30
2023-02-14T14:00:21.444Z,5.38
2023-02-14T14:02:56.173Z,5.10
2023-02-14T14:05:40.502Z,5.03
2023-02-14T14:08:27.556Z,5.15
2023-02-14T14:10:57.599Z,4.75
2023-02-14T14:13:42.866Z,5.32
2023-02-14T14:16:28.087Z,6.20
2023-02-14T14:19:10.552Z,5.18
2023-02-14T14:21:58.399Z,4.90
2023-02-14T14:24:30.528Z,5.28
2023-02-14T14:26:57.371Z,4.15
2023-02-14T14:29:38.542Z,4.75
2023-02-14T14:32:19.464Z,5.00
2023-02-14T14:34:58.114Z,4.90
2023-02-14T14:37:28.874Z,4.50
2023-02-14T14:40:01.498Z,4.82
2023-02-14T14:42:32.452Z,6.05
2023-02-14T14:45:23.371Z,5.50
2023-02-14T14:47:54.338Z,5.20
2023-02-14T14:50:23.188Z,5.03
2023-02-14T14:52:54.209Z,4.72
2023-02-14T14:55:27.274Z,4.22
2023-02-14T14:57:57.174Z,5.35
2023-02-14T15:00:34.999Z,5.10
2023-02-14T15:03:15.633Z,5.88
2023-02-14T15:05:45.462Z,4.80
2023-02-14T15:08:33.136Z,4.55
2023-02-14T15:11:09.188Z,5.72
2023-02-14T15:13:49.803Z,6.15
2023-02-14T15:16:32.973Z,5.63
2023-02-14T15:19:12.950Z,5.35
2023-02-14T15:21:44.715Z,6.80
2023-02-14T15:24:16.187Z,5.47
2023-02-14T15:26:45.620Z,5.60
2023-02-14T15:29:25.005Z,4.90
2023-02-14T15:31:52.860Z,5.78
2023-02-14T15:34:24.596Z,5.53
2023-02-14T15:36:59.278Z,6.90
2023-02-14T15:39:40.393Z,9.48
2023-02-14T15:42:22.868Z,8.45
2023-02-14T15:44:49.925Z,8.32
2023-02-14T15:47:17.064Z,7.00
2023-02-14T15:49:46.734Z,6.95
2023-02-14T15:52:16.436Z,7.00
2023-02-14T15:54:46.711Z,6.72
2023-02-14T15:57:39.938Z,7.22
2023-02-14T16:00:17.098Z,6.68
2023-02-14T16:02:48.094Z,6.10
2023-02-14T16:05:22.033Z,6.78
2023-02-14T16:08:04.245Z,10.75
2023-02-14T16:10:36.898Z,13.75
2023-02-14T16:13:12.652Z,10.40
2023-02-14T16:15:44.192Z,8.65
2023-02-14T16:18:34.294Z,7.88
2023-02-14T16:21:25.317Z,7.03
2023-02-14T16:24:07.383Z,8.55
2023-02-14T16:26:38.020Z,8.65
2023-02-14T16:29:14.904Z,7.28
2023-02-14T16:34:41.276Z,9.95
2023-02-14T16:37:19.030Z,10.85
2023-02-14T16:39:46.168Z,11.32
2023-02-14T16:42:17.254Z,9.52
2023-02-14T16:44:45.699Z,9.00
2023-02-14T16:47:14.931Z,10.63
2023-02-14T16:49:42.248Z,10.82
2023-02-14T16:52:16.002Z,11.45
2023-02-14T16:54:42.965Z,10.07
2023-02-14T16:57:23.838Z,9.82
2023-02-14T16:59:51.132Z,9.77
2023-02-14T17:02:19.232Z,9.45
2023-02-14T17:04:46.354Z,9.82
2023-02-14T17:07:15.818Z,11.95
2023-02-14T17:09:49.808Z,13.90
2023-02-14T17:12:21.329Z,13.63
2023-02-14T17:14:51.909Z,12.73
2023-02-14T17:17:19.467Z,13.30
2023-02-14T17:19:46.587Z,13.50
2023-02-14T17:22:14.890Z,12.02
2023-02-14T17:24:41.859Z,13.50
2023-02-14T17:27:08.883Z,13.48
2023-02-14T17:29:36.138Z,13.90
2023-02-14T17:32:03.216Z,13.55
2023-02-14T17:34:33.849Z,13.45
2023-02-14T17:37:00.811Z,10.70
2023-02-14T17:39:27.676Z,11.68
2023-02-14T17:41:56.780Z,9.15
2023-02-14T17:44:24.207Z,9.38
2023-02-14T17:46:51.295Z,8.27
2023-02-14T17:49:18.309Z,9.43
2023-02-14T17:51:45.223Z,10.68
2023-02-14T17:54:12.614Z,11.25
2023-02-14T17:56:39.642Z,11.60
2023-02-14T17:59:06.586Z,12.80
2023-02-14T18:01:34.589Z,13.05
2023-02-14T18:04:02.316Z,14.98
2023-02-14T18:06:29.176Z,14.98
2023-02-14T18:08:57.178Z,12.75
2023-02-14T18:11:26.425Z,9.75
2023-02-14T18:13:55.368Z,8.70
2023-02-14T18:16:22.900Z,9.77
2023-02-14T18:18:49.855Z,12.10
2023-02-14T18:21:20.443Z,13.18
2023-02-14T18:23:48.066Z,14.18
2023-02-14T18:26:18.062Z,12.40
2023-02-14T18:28:45.649Z,10.85
2023-02-14T18:31:15.741Z,12.63
2023-02-14T18:33:42.891Z,13.38
2023-02-14T18:36:12.707Z,15.20
2023-02-14T18:38:41.140Z,12.63
2023-02-14T18:41:10.668Z,10.20
2023-02-14T18:43:38.260Z,10.48
2023-02-14T18:46:06.983Z,12.23
2023-02-14T18:48:34.845Z,13.15
2023-02-14T18:51:06.259Z,13.57
2023-02-14T18:53:33.262Z,13.98
2023-02-14T18:56:04.212Z,10.18
2023-02-14T18:58:31.115Z,12.68
2023-02-14T19:00:58.195Z,10.60
2023-02-14T19:03:25.137Z,14.07
2023-02-14T19:05:53.312Z,13.05
2023-02-14T19:08:20.342Z,10.82
2023-02-14T19:10:47.274Z,8.93
2023-02-14T19:13:14.213Z,12.23
2023-02-14T19:15:41.231Z,10.25
2023-02-14T19:18:08.296Z,11.52
2023-02-14T19:20:35.204Z,12.05
2023-02-14T19:23:02.443Z,12.30
2023-02-14T19:25:32.623Z,9.38
2023-02-14T19:27:59.755Z,12.15
2023-02-14T19:30:26.752Z,13.02
2023-02-14T19:32:53.756Z,11.52
2023-02-14T19:35:20.772Z,13.95
2023-02-14T19:37:47.885Z,13.10
2023-02-14T19:40:15.247Z,11.98
2023-02-14T19:42:42.186Z,13.32
2023-02-14T19:45:09.644Z,10.70
2023-02-14T19:47:46.538Z,12.50
2023-02-14T19:50:13.927Z,13.13
2023-02-14T19:52:41.160Z,12.65
2023-02-14T19:55:08.667Z,12.65
2023-02-14T19:57:35.528Z,13.27
2023-02-14T20:00:04.130Z,11.90
2023-02-14T20:02:38.441Z,12.82
2023-02-14T20:05:05.629Z,14.00
2023-02-14T20:07:32.706Z,13.80
2023-02-14T20:09:59.646Z,12.25
2023-02-14T20:12:26.580Z,9.68
2023-02-14T20:14:54.883Z,12.00
2023-02-14T20:17:21.951Z,13.50
2023-02-14T20:19:49.263Z,16.35
2023-02-14T20:22:16.371Z,15.02
2023-02-14T20:24:43.309Z,15.27
2023-02-14T20:27:10.349Z,12.38
2023-02-14T20:29:39.796Z,12.00
2023-02-14T20:32:06.889Z,14.15
2023-02-14T20:34:33.966Z,13.82
2023-02-14T20:37:01.012Z,16.20
2023-02-14T20:39:30.607Z,18.45
2023-02-14T20:41:57.850Z,14.35
2023-02-14T20:44:24.926Z,13.02
2023-02-14T20:46:54.318Z,15.30
2023-02-14T20:49:23.002Z,15.48
2023-02-14T20:51:50.729Z,15.18
2023-02-14T20:54:19.285Z,13.80
2023-02-14T20:56:46.573Z,11.70
2023-02-14T20:59:14.201Z,10.40
2023-02-14T21:01:41.304Z,12.10
2023-02-14T21:04:08.313Z,13.45
2023-02-14T21:06:36.294Z,12.68
2023-02-14T21:09:04.406Z,12.55
2023-02-14T21:11:31.480Z,10.30
2023-02-14T21:14:00.105Z,11.25
2023-02-14T21:16:29.358Z,14.48
2023-02-14T21:19:01.304Z,16.33
2023-02-14T21:21:36.530Z,13.52
2023-02-14T21:24:11.975Z,14.93
2023-02-14T21:26:39.540Z,11.68
2023-02-14T21:29:06.828Z,16.42
2023-02-14T21:31:34.538Z,14.05
2023-02-14T21:34:02.629Z,14.73
2023-02-14T21:36:31.985Z,12.63
2023-02-14T21:39:00.025Z,14.52
2023-02-14T21:41:31.132Z,12.98
2023-02-14T21:43:59.735Z,10.20
2023-02-14T21:46:31.181Z,12.23
2023-02-14T21:49:18.852Z,12.88
2023-02-14T21:51:47.108Z,15.07
2023-02-14T21:54:15.005Z,15.50
2023-02-14T21:56:42.767Z,9.50
2023-02-14T21:59:10.402Z,14.63
2023-02-14T22:01:39.619Z,16.58
2023-02-14T22:04:09.380Z,14.00
2023-02-14T22:06:38.463Z,19.10
2023-02-14T22:09:06.063Z,11.10
2023-02-14T22:11:33.521Z,13.77
2023-02-14T22:14:00.831Z,13.57
2023-02-14T22:16:28.112Z,15.95
2023-02-14T22:18:55.254Z,15.63
2023-02-14T22:21:25.632Z,14.90
2023-02-14T22:23:54.260Z,12.38
2023-02-14T22:26:24.547Z,12.80
2023-02-14T22:28:57.109Z,11.40
2023-02-14T22:31:25.506Z,14.60
2023-02-14T22:33:52.552Z,14.98
2023-02-14T22:36:19.869Z,13.02
2023-02-14T22:38:46.884Z,10.40
2023-02-14T22:41:16.881Z,10.80
2023-02-14T22:43:44.516Z,11.80
2023-02-14T22:46:21.338Z,13.77
2023-02-14T22:48:49.499Z,12.48
2023-02-14T22:51:36.016Z,12.20
2023-02-14T22:54:08.438Z,9.52
2023-02-14T22:56:41.121Z,11.02
2023-02-14T22:59:18.794Z,11.25
2023-02-14T23:01:46.514Z,11.50
2023-02-14T23:04:14.949Z,10.48
2023-02-14T23:06:42.087Z,10.32
2023-02-14T23:09:11.355Z,8.43
2023-02-14T23:11:40.294Z,9.23
2023-02-14T23:14:25.903Z,8.55
2023-02-14T23:17:25.159Z,9.70
2023-02-14T23:20:10.730Z,9.57
2023-02-14T23:22:40.295Z,8.63
2023-02-14T23:25:12.285Z,7.57
2023-02-14T23:27:43.260Z,6.65
2023-02-14T23:30:13.996Z,8.88
2023-02-14T23:32:41.519Z,8.02
2023-02-14T23:35:09.009Z,9.02
2023-02-14T23:37:35.920Z,7.38
2023-02-14T23:40:04.098Z,7.63
2023-02-14T23:42:31.050Z,8.43
2023-02-14T23:45:18.074Z,8.40
2023-02-14T23:50:11.999Z,6.50
2023-02-14T23:52:41.888Z,5.88
2023-02-14T23:55:09.372Z,6.25
2023-02-14T23:57:37.626Z,7.80
